Impacts TAF Board
For situational awareness. Not to be used for flight planning purposes.
IDs:

KORD - Chicago/O'Hare Intl, IL, US

Issued at 0259 UTC 21 Sep 2018
Updated at 0451 UTC 21 Sep 2018
Potential Impact None Slight Moderate High
Time<<22/05Z 22/06Z 22/07Z 22/08Z 22/09Z 22/10Z 22/11Z 22/12Z 22/13Z 22/14Z 22/15Z 22/16Z 22/17Z
Type PRVL
VIS >6
CIG --
Cover SCT
FltCat VFR
WX --
WDir 350
WSpd 12
WGst 18
Raw TAF
KORD 210259Z 2103/2206 21017G27KT P6SM FEW050 FEW250 WS015/22050KT
  TEMPO 2109/2111 23020G32KT 6SM -SHRA SCT030 BKN050
  FM211200 24018G27KT P6SM SCT020 SCT100
  FM211500 28017G25KT P6SM SCT030 SCT250
  FM212100 31014G23KT P6SM SCT040 SCT250
  FM220200 35012G18KT P6SM FEW030 SCT250


METAR Board
Radar Display
Forecast Discussion
For situational awareness. Not to be used for flight planning purposes.